sensor_id;sensor_type;location;lat;lon;timestamp;temperature;humidity
66728;DHT22;53641;44.274;19.890;2022-09-09T00:01:28;20.90;99.90
66728;DHT22;53641;44.274;19.890;2022-09-09T00:04:03;20.90;99.90
66728;DHT22;53641;44.274;19.890;2022-09-09T00:06:43;20.90;99.90
66728;DHT22;53641;44.274;19.890;2022-09-09T00:09:13;20.80;99.90
66728;DHT22;53641;44.274;19.890;2022-09-09T00:11:42;20.90;99.90
66728;DHT22;53641;44.274;19.890;2022-09-09T00:14:13;21.00;99.90
66728;DHT22;53641;44.274;19.890;2022-09-09T00:16:42;21.10;99.90
66728;DHT22;53641;44.274;19.890;2022-09-09T00:19:23;21.00;99.90
66728;DHT22;53641;44.274;19.890;2022-09-09T00:21:56;21.10;99.90
66728;DHT22;53641;44.274;19.890;2022-09-09T00:24:35;21.10;99.90
66728;DHT22;53641;44.274;19.890;2022-09-09T00:27:23;21.10;99.90
66728;DHT22;53641;44.274;19.890;2022-09-09T00:30:12;21.20;99.90
66728;DHT22;53641;44.274;19.890;2022-09-09T00:32:39;21.20;99.90
66728;DHT22;53641;44.274;19.890;2022-09-09T00:35:27;21.20;99.90
66728;DHT22;53641;44.274;19.890;2022-09-09T00:37:57;21.20;99.90
66728;DHT22;53641;44.274;19.890;2022-09-09T00:40:33;21.20;99.90
66728;DHT22;53641;44.274;19.890;2022-09-09T00:43:10;21.20;99.90
66728;DHT22;53641;44.274;19.890;2022-09-09T00:46:03;21.30;99.90
66728;DHT22;53641;44.274;19.890;2022-09-09T00:49:52;21.20;99.90
66728;DHT22;53641;44.274;19.890;2022-09-09T00:52:28;21.20;99.90
66728;DHT22;53641;44.274;19.890;2022-09-09T00:54:49;21.20;99.90
66728;DHT22;53641;44.274;19.890;2022-09-09T00:57:23;21.20;99.90
66728;DHT22;53641;44.274;19.890;2022-09-09T00:59:59;21.20;99.90
66728;DHT22;53641;44.274;19.890;2022-09-09T01:02:47;21.20;99.90
66728;DHT22;53641;44.274;19.890;2022-09-09T01:05:39;21.20;99.90
66728;DHT22;53641;44.274;19.890;2022-09-09T01:08:22;21.30;99.90
66728;DHT22;53641;44.274;19.890;2022-09-09T01:10:54;21.20;99.90
66728;DHT22;53641;44.274;19.890;2022-09-09T01:13:29;21.20;99.90
66728;DHT22;53641;44.274;19.890;2022-09-09T01:16:00;21.20;99.90
66728;DHT22;53641;44.274;19.890;2022-09-09T01:18:31;21.30;99.90
66728;DHT22;53641;44.274;19.890;2022-09-09T01:21:07;21.30;99.90
66728;DHT22;53641;44.274;19.890;2022-09-09T01:23:45;21.30;99.90
66728;DHT22;53641;44.274;19.890;2022-09-09T01:26:18;21.40;99.90
66728;DHT22;53641;44.274;19.890;2022-09-09T01:28:47;21.30;99.90
66728;DHT22;53641;44.274;19.890;2022-09-09T01:31:23;21.40;99.90
66728;DHT22;53641;44.274;19.890;2022-09-09T01:33:52;21.40;99.90
66728;DHT22;53641;44.274;19.890;2022-09-09T01:36:34;21.40;99.90
66728;DHT22;53641;44.274;19.890;2022-09-09T01:39:03;21.40;99.90
66728;DHT22;53641;44.274;19.890;2022-09-09T01:41:29;21.50;99.90
66728;DHT22;53641;44.274;19.890;2022-09-09T01:43:55;21.40;99.90
66728;DHT22;53641;44.274;19.890;2022-09-09T01:46:22;21.40;99.90
66728;DHT22;53641;44.274;19.890;2022-09-09T01:48:51;21.40;99.90
66728;DHT22;53641;44.274;19.890;2022-09-09T01:51:18;21.40;99.90
66728;DHT22;53641;44.274;19.890;2022-09-09T01:53:45;21.40;99.90
66728;DHT22;53641;44.274;19.890;2022-09-09T01:56:31;21.50;99.90
66728;DHT22;53641;44.274;19.890;2022-09-09T01:59:08;21.50;99.90
66728;DHT22;53641;44.274;19.890;2022-09-09T02:02:09;21.50;99.90
66728;DHT22;53641;44.274;19.890;2022-09-09T02:04:41;21.50;99.90
66728;DHT22;53641;44.274;19.890;2022-09-09T02:07:18;21.60;99.90
66728;DHT22;53641;44.274;19.890;2022-09-09T02:09:49;21.60;99.90
66728;DHT22;53641;44.274;19.890;2022-09-09T02:12:19;21.60;99.90
66728;DHT22;53641;44.274;19.890;2022-09-09T02:14:50;21.50;99.90
66728;DHT22;53641;44.274;19.890;2022-09-09T02:17:22;21.60;99.90
66728;DHT22;53641;44.274;19.890;2022-09-09T02:19:56;21.40;99.90
66728;DHT22;53641;44.274;19.890;2022-09-09T02:22:24;21.50;99.90
66728;DHT22;53641;44.274;19.890;2022-09-09T02:24:56;21.50;99.90
66728;DHT22;53641;44.274;19.890;2022-09-09T02:27:24;21.50;99.90
66728;DHT22;53641;44.274;19.890;2022-09-09T02:29:52;21.50;99.90
66728;DHT22;53641;44.274;19.890;2022-09-09T02:32:21;21.60;99.90
66728;DHT22;53641;44.274;19.890;2022-09-09T02:34:50;21.60;99.90
66728;DHT22;53641;44.274;19.890;2022-09-09T02:37:23;21.50;99.90
66728;DHT22;53641;44.274;19.890;2022-09-09T02:39:50;21.60;99.90
66728;DHT22;53641;44.274;19.890;2022-09-09T02:42:16;21.60;99.90
66728;DHT22;53641;44.274;19.890;2022-09-09T02:44:42;21.60;99.90
66728;DHT22;53641;44.274;19.890;2022-09-09T02:47:21;21.60;99.90
66728;DHT22;53641;44.274;19.890;2022-09-09T02:50:08;21.40;99.90
66728;DHT22;53641;44.274;19.890;2022-09-09T02:52:52;21.00;99.90
66728;DHT22;53641;44.274;19.890;2022-09-09T02:55:41;20.90;99.90
66728;DHT22;53641;44.274;19.890;2022-09-09T02:58:13;21.00;99.90
66728;DHT22;53641;44.274;19.890;2022-09-09T03:00:43;21.10;99.90
66728;DHT22;53641;44.274;19.890;2022-09-09T03:03:09;21.00;99.90
66728;DHT22;53641;44.274;19.890;2022-09-09T03:05:36;21.00;99.90
66728;DHT22;53641;44.274;19.890;2022-09-09T03:08:02;21.00;99.90
66728;DHT22;53641;44.274;19.890;2022-09-09T03:10:29;20.90;99.90
66728;DHT22;53641;44.274;19.890;2022-09-09T03:12:54;20.90;99.90
66728;DHT22;53641;44.274;19.890;2022-09-09T03:15:21;20.80;99.90
66728;DHT22;53641;44.274;19.890;2022-09-09T03:17:47;20.90;99.90
66728;DHT22;53641;44.274;19.890;2022-09-09T03:20:12;20.90;99.90
66728;DHT22;53641;44.274;19.890;2022-09-09T03:22:38;20.90;99.90
66728;DHT22;53641;44.274;19.890;2022-09-09T03:25:05;20.90;99.90
66728;DHT22;53641;44.274;19.890;2022-09-09T03:27:31;20.80;99.90
66728;DHT22;53641;44.274;19.890;2022-09-09T03:29:57;20.80;99.90
66728;DHT22;53641;44.274;19.890;2022-09-09T03:32:23;20.80;99.90
66728;DHT22;53641;44.274;19.890;2022-09-09T03:34:51;20.90;99.90
66728;DHT22;53641;44.274;19.890;2022-09-09T03:37:17;20.80;99.90
66728;DHT22;53641;44.274;19.890;2022-09-09T03:39:44;20.70;99.90
66728;DHT22;53641;44.274;19.890;2022-09-09T03:42:12;20.70;99.90
66728;DHT22;53641;44.274;19.890;2022-09-09T03:44:39;20.70;99.90
66728;DHT22;53641;44.274;19.890;2022-09-09T03:47:05;20.70;99.90
66728;DHT22;53641;44.274;19.890;2022-09-09T03:49:32;20.70;99.90
66728;DHT22;53641;44.274;19.890;2022-09-09T03:51:57;20.70;99.90
66728;DHT22;53641;44.274;19.890;2022-09-09T03:54:25;20.70;99.90
66728;DHT22;53641;44.274;19.890;2022-09-09T03:56:51;20.60;99.90
66728;DHT22;53641;44.274;19.890;2022-09-09T03:59:17;20.70;99.90
66728;DHT22;53641;44.274;19.890;2022-09-09T04:01:42;20.80;99.90
66728;DHT22;53641;44.274;19.890;2022-09-09T04:04:09;20.70;99.90
66728;DHT22;53641;44.274;19.890;2022-09-09T04:06:36;20.80;99.90
66728;DHT22;53641;44.274;19.890;2022-09-09T04:09:01;20.80;99.90
66728;DHT22;53641;44.274;19.890;2022-09-09T04:11:29;20.80;99.90
66728;DHT22;53641;44.274;19.890;2022-09-09T04:13:55;20.90;99.90
66728;DHT22;53641;44.274;19.890;2022-09-09T04:16:20;21.00;99.90
66728;DHT22;53641;44.274;19.890;2022-09-09T04:18:46;21.00;99.90
66728;DHT22;53641;44.274;19.890;2022-09-09T04:21:12;20.90;99.90
66728;DHT22;53641;44.274;19.890;2022-09-09T04:23:38;20.80;99.90
66728;DHT22;53641;44.274;19.890;2022-09-09T04:26:05;20.80;99.90
66728;DHT22;53641;44.274;19.890;2022-09-09T04:28:33;20.80;99.90
66728;DHT22;53641;44.274;19.890;2022-09-09T04:31:07;20.90;99.90
66728;DHT22;53641;44.274;19.890;2022-09-09T04:33:33;21.00;99.90
66728;DHT22;53641;44.274;19.890;2022-09-09T04:35:59;20.90;99.90
66728;DHT22;53641;44.274;19.890;2022-09-09T04:38:25;20.90;99.90
66728;DHT22;53641;44.274;19.890;2022-09-09T04:40:51;20.90;99.90
66728;DHT22;53641;44.274;19.890;2022-09-09T04:43:20;21.10;99.90
66728;DHT22;53641;44.274;19.890;2022-09-09T04:45:50;21.10;99.90
66728;DHT22;53641;44.274;19.890;2022-09-09T04:48:16;21.10;99.90
66728;DHT22;53641;44.274;19.890;2022-09-09T04:50:42;21.20;99.90
66728;DHT22;53641;44.274;19.890;2022-09-09T04:53:08;21.20;99.90
66728;DHT22;53641;44.274;19.890;2022-09-09T04:55:35;21.30;99.90
66728;DHT22;53641;44.274;19.890;2022-09-09T04:58:05;21.40;99.90
66728;DHT22;53641;44.274;19.890;2022-09-09T05:00:31;21.40;99.90
66728;DHT22;53641;44.274;19.890;2022-09-09T05:02:57;21.40;99.90
66728;DHT22;53641;44.274;19.890;2022-09-09T05:05:22;21.30;99.90
66728;DHT22;53641;44.274;19.890;2022-09-09T05:07:48;21.30;99.90
66728;DHT22;53641;44.274;19.890;2022-09-09T05:10:14;21.40;99.90
66728;DHT22;53641;44.274;19.890;2022-09-09T05:12:41;21.30;99.90
66728;DHT22;53641;44.274;19.890;2022-09-09T05:15:08;21.40;99.90
66728;DHT22;53641;44.274;19.890;2022-09-09T05:17:35;21.40;99.90
66728;DHT22;53641;44.274;19.890;2022-09-09T05:20:01;21.30;99.90
66728;DHT22;53641;44.274;19.890;2022-09-09T05:22:29;21.40;99.90
66728;DHT22;53641;44.274;19.890;2022-09-09T05:24:55;21.40;99.90
66728;DHT22;53641;44.274;19.890;2022-09-09T05:27:21;21.40;99.90
66728;DHT22;53641;44.274;19.890;2022-09-09T05:29:47;21.40;99.90
66728;DHT22;53641;44.274;19.890;2022-09-09T05:32:13;21.50;99.90
66728;DHT22;53641;44.274;19.890;2022-09-09T05:34:40;21.50;99.90
66728;DHT22;53641;44.274;19.890;2022-09-09T05:37:06;21.60;99.90
66728;DHT22;53641;44.274;19.890;2022-09-09T05:39:33;21.70;99.90
66728;DHT22;53641;44.274;19.890;2022-09-09T05:41:59;21.70;99.90
66728;DHT22;53641;44.274;19.890;2022-09-09T05:44:25;21.90;99.90
66728;DHT22;53641;44.274;19.890;2022-09-09T05:46:53;21.80;99.90
66728;DHT22;53641;44.274;19.890;2022-09-09T05:49:19;21.90;99.90
66728;DHT22;53641;44.274;19.890;2022-09-09T05:51:45;21.90;99.90
66728;DHT22;53641;44.274;19.890;2022-09-09T05:54:15;21.90;99.90
66728;DHT22;53641;44.274;19.890;2022-09-09T05:56:41;21.90;99.90
66728;DHT22;53641;44.274;19.890;2022-09-09T05:59:07;22.10;99.90
66728;DHT22;53641;44.274;19.890;2022-09-09T06:01:35;22.30;99.90
66728;DHT22;53641;44.274;19.890;2022-09-09T06:04:02;22.40;99.90
66728;DHT22;53641;44.274;19.890;2022-09-09T06:06:31;22.30;99.90
66728;DHT22;53641;44.274;19.890;2022-09-09T06:09:06;22.40;99.90
66728;DHT22;53641;44.274;19.890;2022-09-09T06:11:36;22.40;99.90
66728;DHT22;53641;44.274;19.890;2022-09-09T06:14:03;22.40;99.90
66728;DHT22;53641;44.274;19.890;2022-09-09T06:16:30;22.50;99.90
66728;DHT22;53641;44.274;19.890;2022-09-09T06:19:01;22.70;99.90
66728;DHT22;53641;44.274;19.890;2022-09-09T06:21:35;22.70;99.90
66728;DHT22;53641;44.274;19.890;2022-09-09T06:24:02;22.70;99.90
66728;DHT22;53641;44.274;19.890;2022-09-09T06:26:33;23.00;99.90
66728;DHT22;53641;44.274;19.890;2022-09-09T06:28:59;23.10;99.90
66728;DHT22;53641;44.274;19.890;2022-09-09T06:31:27;23.30;99.90
66728;DHT22;53641;44.274;19.890;2022-09-09T06:33:56;23.30;99.90
66728;DHT22;53641;44.274;19.890;2022-09-09T06:36:24;23.40;99.90
66728;DHT22;53641;44.274;19.890;2022-09-09T06:38:51;23.60;99.90
66728;DHT22;53641;44.274;19.890;2022-09-09T06:41:18;23.70;99.90
66728;DHT22;53641;44.274;19.890;2022-09-09T06:43:45;24.00;99.90
66728;DHT22;53641;44.274;19.890;2022-09-09T06:46:17;24.50;99.90
66728;DHT22;53641;44.274;19.890;2022-09-09T06:48:44;24.80;99.90
66728;DHT22;53641;44.274;19.890;2022-09-09T06:51:13;25.40;99.90
66728;DHT22;53641;44.274;19.890;2022-09-09T06:53:41;25.80;99.90
66728;DHT22;53641;44.274;19.890;2022-09-09T06:56:26;26.20;99.90
66728;DHT22;53641;44.274;19.890;2022-09-09T06:58:54;26.80;99.90
66728;DHT22;53641;44.274;19.890;2022-09-09T07:01:23;27.00;99.90
66728;DHT22;53641;44.274;19.890;2022-09-09T07:03:53;27.00;99.90
66728;DHT22;53641;44.274;19.890;2022-09-09T07:06:24;27.10;99.90
66728;DHT22;53641;44.274;19.890;2022-09-09T07:08:51;27.30;99.90
66728;DHT22;53641;44.274;19.890;2022-09-09T07:11:18;27.30;99.90
66728;DHT22;53641;44.274;19.890;2022-09-09T07:13:44;27.30;99.90
66728;DHT22;53641;44.274;19.890;2022-09-09T07:16:12;27.70;99.90
66728;DHT22;53641;44.274;19.890;2022-09-09T07:18:39;28.30;99.90
66728;DHT22;53641;44.274;19.890;2022-09-09T07:21:05;29.10;99.90
66728;DHT22;53641;44.274;19.890;2022-09-09T07:23:32;29.20;99.90
66728;DHT22;53641;44.274;19.890;2022-09-09T07:25:58;29.20;99.80
66728;DHT22;53641;44.274;19.890;2022-09-09T07:28:25;29.20;99.70
66728;DHT22;53641;44.274;19.890;2022-09-09T07:30:57;29.40;99.90
66728;DHT22;53641;44.274;19.890;2022-09-09T07:33:25;29.90;97.10
66728;DHT22;53641;44.274;19.890;2022-09-09T07:35:52;30.30;96.60
66728;DHT22;53641;44.274;19.890;2022-09-09T07:38:18;30.90;94.90
66728;DHT22;53641;44.274;19.890;2022-09-09T07:40:45;31.90;94.30
66728;DHT22;53641;44.274;19.890;2022-09-09T07:43:11;32.70;92.90
66728;DHT22;53641;44.274;19.890;2022-09-09T07:45:37;33.90;90.60
66728;DHT22;53641;44.274;19.890;2022-09-09T07:50:30;34.20;85.30
66728;DHT22;53641;44.274;19.890;2022-09-09T07:52:55;34.60;81.20
66728;DHT22;53641;44.274;19.890;2022-09-09T07:55:22;35.30;79.30
66728;DHT22;53641;44.274;19.890;2022-09-09T07:57:51;35.20;77.70
66728;DHT22;53641;44.274;19.890;2022-09-09T08:00:17;35.50;79.50
66728;DHT22;53641;44.274;19.890;2022-09-09T08:02:44;35.60;76.90
66728;DHT22;53641;44.274;19.890;2022-09-09T08:05:20;36.30;74.10
66728;DHT22;53641;44.274;19.890;2022-09-09T08:07:47;36.40;76.00
66728;DHT22;53641;44.274;19.890;2022-09-09T08:10:13;37.00;74.50
66728;DHT22;53641;44.274;19.890;2022-09-09T08:12:41;37.00;71.90
66728;DHT22;53641;44.274;19.890;2022-09-09T08:15:07;36.60;71.90
66728;DHT22;53641;44.274;19.890;2022-09-09T08:17:33;36.20;71.50
66728;DHT22;53641;44.274;19.890;2022-09-09T08:22:29;36.40;73.40
66728;DHT22;53641;44.274;19.890;2022-09-09T08:24:55;36.50;73.50
66728;DHT22;53641;44.274;19.890;2022-09-09T08:27:21;36.30;73.00
66728;DHT22;53641;44.274;19.890;2022-09-09T08:29:48;36.40;72.80
66728;DHT22;53641;44.274;19.890;2022-09-09T08:32:13;36.60;70.30
66728;DHT22;53641;44.274;19.890;2022-09-09T08:34:39;36.80;71.90
66728;DHT22;53641;44.274;19.890;2022-09-09T08:37:06;36.90;71.90
66728;DHT22;53641;44.274;19.890;2022-09-09T08:39:32;36.80;71.70
66728;DHT22;53641;44.274;19.890;2022-09-09T08:42:19;36.50;71.70
66728;DHT22;53641;44.274;19.890;2022-09-09T08:44:59;36.60;70.80
66728;DHT22;53641;44.274;19.890;2022-09-09T08:47:35;36.60;69.20
66728;DHT22;53641;44.274;19.890;2022-09-09T08:50:25;36.10;70.50
66728;DHT22;53641;44.274;19.890;2022-09-09T08:52:59;35.20;69.60
66728;DHT22;53641;44.274;19.890;2022-09-09T08:55:35;34.30;70.40
66728;DHT22;53641;44.274;19.890;2022-09-09T08:58:13;33.40;72.70
66728;DHT22;53641;44.274;19.890;2022-09-09T09:01:16;33.30;72.30
66728;DHT22;53641;44.274;19.890;2022-09-09T09:04:07;33.20;73.10
66728;DHT22;53641;44.274;19.890;2022-09-09T09:07:16;33.50;72.70
66728;DHT22;53641;44.274;19.890;2022-09-09T09:10:00;33.70;71.20
66728;DHT22;53641;44.274;19.890;2022-09-09T09:12:31;33.60;71.30
66728;DHT22;53641;44.274;19.890;2022-09-09T09:14:59;32.70;72.40
66728;DHT22;53641;44.274;19.890;2022-09-09T09:17:28;32.90;72.70
66728;DHT22;53641;44.274;19.890;2022-09-09T09:19:57;32.90;73.70
66728;DHT22;53641;44.274;19.890;2022-09-09T09:22:43;32.90;75.80
66728;DHT22;53641;44.274;19.890;2022-09-09T09:25:16;33.00;71.90
66728;DHT22;53641;44.274;19.890;2022-09-09T09:28:02;32.60;70.80
66728;DHT22;53641;44.274;19.890;2022-09-09T09:30:36;32.60;71.70
66728;DHT22;53641;44.274;19.890;2022-09-09T09:33:08;32.10;74.00
66728;DHT22;53641;44.274;19.890;2022-09-09T09:35:36;31.80;74.00
66728;DHT22;53641;44.274;19.890;2022-09-09T09:38:12;31.60;73.20
66728;DHT22;53641;44.274;19.890;2022-09-09T09:40:48;31.80;74.10
66728;DHT22;53641;44.274;19.890;2022-09-09T09:43:20;31.50;77.80
66728;DHT22;53641;44.274;19.890;2022-09-09T09:45:47;31.60;75.00
66728;DHT22;53641;44.274;19.890;2022-09-09T09:48:14;31.80;74.00
66728;DHT22;53641;44.274;19.890;2022-09-09T09:50:48;31.60;76.30
66728;DHT22;53641;44.274;19.890;2022-09-09T09:53:25;31.30;75.00
66728;DHT22;53641;44.274;19.890;2022-09-09T09:56:00;30.80;77.70
66728;DHT22;53641;44.274;19.890;2022-09-09T09:58:29;30.70;75.80
66728;DHT22;53641;44.274;19.890;2022-09-09T10:00:57;30.60;77.70
66728;DHT22;53641;44.274;19.890;2022-09-09T10:03:29;30.70;77.20
66728;DHT22;53641;44.274;19.890;2022-09-09T10:05:56;30.50;78.20
66728;DHT22;53641;44.274;19.890;2022-09-09T10:08:27;30.40;77.90
66728;DHT22;53641;44.274;19.890;2022-09-09T10:11:00;30.20;78.60
66728;DHT22;53641;44.274;19.890;2022-09-09T10:13:44;29.80;78.90
66728;DHT22;53641;44.274;19.890;2022-09-09T10:16:24;29.60;78.20
66728;DHT22;53641;44.274;19.890;2022-09-09T10:18:59;29.60;80.90
66728;DHT22;53641;44.274;19.890;2022-09-09T10:21:35;29.30;81.70
66728;DHT22;53641;44.274;19.890;2022-09-09T10:24:33;29.10;79.80
66728;DHT22;53641;44.274;19.890;2022-09-09T10:27:25;29.00;81.40
66728;DHT22;53641;44.274;19.890;2022-09-09T10:30:17;28.90;83.80
66728;DHT22;53641;44.274;19.890;2022-09-09T10:35:58;28.80;84.30
66728;DHT22;53641;44.274;19.890;2022-09-09T10:38:42;28.80;85.40
66728;DHT22;53641;44.274;19.890;2022-09-09T10:42:09;28.60;82.80
66728;DHT22;53641;44.274;19.890;2022-09-09T10:44:32;28.80;83.70
66728;DHT22;53641;44.274;19.890;2022-09-09T10:47:14;28.70;83.60
66728;DHT22;53641;44.274;19.890;2022-09-09T10:50:06;28.90;86.00
66728;DHT22;53641;44.274;19.890;2022-09-09T10:52:50;29.00;83.90
66728;DHT22;53641;44.274;19.890;2022-09-09T10:55:20;28.80;83.40
66728;DHT22;53641;44.274;19.890;2022-09-09T10:57:47;28.60;83.90
66728;DHT22;53641;44.274;19.890;2022-09-09T11:00:18;28.60;85.20
66728;DHT22;53641;44.274;19.890;2022-09-09T11:02:45;28.60;84.60
66728;DHT22;53641;44.274;19.890;2022-09-09T11:05:22;28.60;84.60
66728;DHT22;53641;44.274;19.890;2022-09-09T11:08:02;28.60;83.60
66728;DHT22;53641;44.274;19.890;2022-09-09T11:10:46;28.60;84.20
66728;DHT22;53641;44.274;19.890;2022-09-09T11:13:18;28.60;83.90
66728;DHT22;53641;44.274;19.890;2022-09-09T11:15:50;28.70;82.90
66728;DHT22;53641;44.274;19.890;2022-09-09T11:18:20;28.70;84.00
66728;DHT22;53641;44.274;19.890;2022-09-09T11:20:55;28.80;83.10
66728;DHT22;53641;44.274;19.890;2022-09-09T11:23:31;29.10;84.10
66728;DHT22;53641;44.274;19.890;2022-09-09T11:26:01;29.30;84.20
66728;DHT22;53641;44.274;19.890;2022-09-09T11:29:14;29.50;82.90
66728;DHT22;53641;44.274;19.890;2022-09-09T11:33:24;29.60;82.40
66728;DHT22;53641;44.274;19.890;2022-09-09T11:34:52;29.40;81.10
66728;DHT22;53641;44.274;19.890;2022-09-09T11:37:49;29.70;81.90
66728;DHT22;53641;44.274;19.890;2022-09-09T11:40:23;29.70;82.80
66728;DHT22;53641;44.274;19.890;2022-09-09T11:43:05;29.70;81.40
66728;DHT22;53641;44.274;19.890;2022-09-09T11:48:45;29.70;83.10
66728;DHT22;53641;44.274;19.890;2022-09-09T11:51:26;29.60;82.60
66728;DHT22;53641;44.274;19.890;2022-09-09T11:54:01;29.50;83.20
66728;DHT22;53641;44.274;19.890;2022-09-09T11:56:44;29.80;81.60
66728;DHT22;53641;44.274;19.890;2022-09-09T11:59:30;29.80;83.10
66728;DHT22;53641;44.274;19.890;2022-09-09T12:01:58;30.00;82.20
66728;DHT22;53641;44.274;19.890;2022-09-09T12:04:34;29.90;82.00
66728;DHT22;53641;44.274;19.890;2022-09-09T12:09:59;29.90;82.20
66728;DHT22;53641;44.274;19.890;2022-09-09T12:12:29;30.00;82.80
66728;DHT22;53641;44.274;19.890;2022-09-09T12:15:00;30.10;82.00
66728;DHT22;53641;44.274;19.890;2022-09-09T12:17:28;30.00;81.30
66728;DHT22;53641;44.274;19.890;2022-09-09T12:20:20;30.00;81.80
66728;DHT22;53641;44.274;19.890;2022-09-09T12:24:02;29.80;81.60
66728;DHT22;53641;44.274;19.890;2022-09-09T12:25:59;29.80;81.50
66728;DHT22;53641;44.274;19.890;2022-09-09T12:28:39;29.70;82.10
66728;DHT22;53641;44.274;19.890;2022-09-09T12:31:31;29.40;81.40
66728;DHT22;53641;44.274;19.890;2022-09-09T12:34:09;29.30;81.10
66728;DHT22;53641;44.274;19.890;2022-09-09T12:36:37;29.20;81.10
66728;DHT22;53641;44.274;19.890;2022-09-09T12:39:18;29.10;81.50
66728;DHT22;53641;44.274;19.890;2022-09-09T12:41:54;29.00;81.00
66728;DHT22;53641;44.274;19.890;2022-09-09T12:44:22;28.90;82.00
66728;DHT22;53641;44.274;19.890;2022-09-09T12:46:48;28.80;82.60
66728;DHT22;53641;44.274;19.890;2022-09-09T12:49:28;28.70;82.80
66728;DHT22;53641;44.274;19.890;2022-09-09T12:51:56;28.60;83.30
66728;DHT22;53641;44.274;19.890;2022-09-09T12:54:23;28.80;84.10
66728;DHT22;53641;44.274;19.890;2022-09-09T12:56:49;29.00;82.60
66728;DHT22;53641;44.274;19.890;2022-09-09T12:59:26;29.20;83.20
66728;DHT22;53641;44.274;19.890;2022-09-09T13:01:57;29.20;82.10
66728;DHT22;53641;44.274;19.890;2022-09-09T13:04:22;29.20;82.00
66728;DHT22;53641;44.274;19.890;2022-09-09T13:06:48;29.30;81.90
66728;DHT22;53641;44.274;19.890;2022-09-09T13:09:14;29.20;82.20
66728;DHT22;53641;44.274;19.890;2022-09-09T13:11:42;29.10;82.50
66728;DHT22;53641;44.274;19.890;2022-09-09T13:14:18;29.10;82.50
66728;DHT22;53641;44.274;19.890;2022-09-09T13:16:55;29.00;82.80
66728;DHT22;53641;44.274;19.890;2022-09-09T13:19:21;28.90;83.00
66728;DHT22;53641;44.274;19.890;2022-09-09T13:21:47;28.80;83.40
66728;DHT22;53641;44.274;19.890;2022-09-09T13:24:33;29.00;83.60
66728;DHT22;53641;44.274;19.890;2022-09-09T13:27:02;29.10;83.70
66728;DHT22;53641;44.274;19.890;2022-09-09T13:29:29;29.10;84.40
66728;DHT22;53641;44.274;19.890;2022-09-09T13:32:06;29.00;83.60
66728;DHT22;53641;44.274;19.890;2022-09-09T13:34:34;29.00;84.20
66728;DHT22;53641;44.274;19.890;2022-09-09T13:37:02;29.00;84.50
66728;DHT22;53641;44.274;19.890;2022-09-09T13:39:32;28.90;84.10
66728;DHT22;53641;44.274;19.890;2022-09-09T13:41:58;28.90;84.10
66728;DHT22;53641;44.274;19.890;2022-09-09T13:44:31;28.80;83.80
66728;DHT22;53641;44.274;19.890;2022-09-09T13:47:01;28.90;84.00
66728;DHT22;53641;44.274;19.890;2022-09-09T13:49:29;28.80;83.50
66728;DHT22;53641;44.274;19.890;2022-09-09T13:52:09;29.00;83.90
66728;DHT22;53641;44.274;19.890;2022-09-09T13:54:54;28.80;83.20
66728;DHT22;53641;44.274;19.890;2022-09-09T13:57:25;28.80;83.60
66728;DHT22;53641;44.274;19.890;2022-09-09T13:59:52;28.70;83.80
66728;DHT22;53641;44.274;19.890;2022-09-09T14:02:18;28.60;83.20
66728;DHT22;53641;44.274;19.890;2022-09-09T14:04:45;28.40;84.40
66728;DHT22;53641;44.274;19.890;2022-09-09T14:07:16;28.40;84.50
66728;DHT22;53641;44.274;19.890;2022-09-09T14:09:42;28.40;84.20
66728;DHT22;53641;44.274;19.890;2022-09-09T14:12:11;28.60;83.50
66728;DHT22;53641;44.274;19.890;2022-09-09T14:14:37;28.40;84.10
66728;DHT22;53641;44.274;19.890;2022-09-09T14:17:03;28.40;83.80
66728;DHT22;53641;44.274;19.890;2022-09-09T14:19:29;28.40;84.20
66728;DHT22;53641;44.274;19.890;2022-09-09T14:21:56;28.20;84.50
66728;DHT22;53641;44.274;19.890;2022-09-09T14:24:26;28.10;86.40
66728;DHT22;53641;44.274;19.890;2022-09-09T14:26:51;28.00;84.20
66728;DHT22;53641;44.274;19.890;2022-09-09T14:29:17;27.90;84.80
66728;DHT22;53641;44.274;19.890;2022-09-09T14:31:43;27.90;85.00
66728;DHT22;53641;44.274;19.890;2022-09-09T14:34:09;27.80;85.60
66728;DHT22;53641;44.274;19.890;2022-09-09T14:36:36;27.80;85.40
66728;DHT22;53641;44.274;19.890;2022-09-09T14:39:02;27.90;85.60
66728;DHT22;53641;44.274;19.890;2022-09-09T14:41:27;28.00;85.80
66728;DHT22;53641;44.274;19.890;2022-09-09T14:43:54;28.00;85.30
66728;DHT22;53641;44.274;19.890;2022-09-09T14:46:21;28.00;85.40
66728;DHT22;53641;44.274;19.890;2022-09-09T14:48:46;28.00;85.50
66728;DHT22;53641;44.274;19.890;2022-09-09T14:51:17;28.00;85.30
66728;DHT22;53641;44.274;19.890;2022-09-09T14:53:45;28.10;85.30
66728;DHT22;53641;44.274;19.890;2022-09-09T14:56:20;28.10;85.60
66728;DHT22;53641;44.274;19.890;2022-09-09T14:58:47;28.20;85.50
66728;DHT22;53641;44.274;19.890;2022-09-09T15:01:15;28.20;85.60
66728;DHT22;53641;44.274;19.890;2022-09-09T15:03:43;28.10;85.50
66728;DHT22;53641;44.274;19.890;2022-09-09T15:06:11;28.10;85.20
66728;DHT22;53641;44.274;19.890;2022-09-09T15:08:39;28.10;85.60
66728;DHT22;53641;44.274;19.890;2022-09-09T15:11:06;28.10;86.20
66728;DHT22;53641;44.274;19.890;2022-09-09T15:13:36;28.10;85.90
66728;DHT22;53641;44.274;19.890;2022-09-09T15:16:12;28.10;86.10
66728;DHT22;53641;44.274;19.890;2022-09-09T15:18:38;28.00;85.90
66728;DHT22;53641;44.274;19.890;2022-09-09T15:21:17;27.90;86.10
66728;DHT22;53641;44.274;19.890;2022-09-09T15:23:44;27.90;86.20
66728;DHT22;53641;44.274;19.890;2022-09-09T15:26:11;27.90;86.50
66728;DHT22;53641;44.274;19.890;2022-09-09T15:28:40;27.80;87.00
66728;DHT22;53641;44.274;19.890;2022-09-09T15:31:09;27.80;87.00
66728;DHT22;53641;44.274;19.890;2022-09-09T15:33:36;27.70;87.30
66728;DHT22;53641;44.274;19.890;2022-09-09T15:36:13;27.70;87.80
66728;DHT22;53641;44.274;19.890;2022-09-09T15:38:39;27.60;87.80
66728;DHT22;53641;44.274;19.890;2022-09-09T15:41:05;27.50;87.80
66728;DHT22;53641;44.274;19.890;2022-09-09T15:43:31;27.50;88.10
66728;DHT22;53641;44.274;19.890;2022-09-09T15:46:02;27.50;88.40
66728;DHT22;53641;44.274;19.890;2022-09-09T15:48:32;27.40;88.60
66728;DHT22;53641;44.274;19.890;2022-09-09T15:51:02;27.40;89.00
66728;DHT22;53641;44.274;19.890;2022-09-09T15:53:29;27.40;89.10
66728;DHT22;53641;44.274;19.890;2022-09-09T15:55:55;27.30;89.30
66728;DHT22;53641;44.274;19.890;2022-09-09T15:58:21;27.30;89.50